Terminal Aerodrome Forecast
Issued by NWS Chicago, IL

Home | Current Version | Previous Version | Text Only | Print | Product List | Glossary Off
Versions: 1 2 3 4 5 6 7 8 9 10 11 12 13 14 15 16 17 18 19 20 21 22 23

000
FTUS43 KLOT 010301 AAB
TAFRFD
TAF AMD
KRFD 010301Z 0103/0124 02009KT 4SM -SHRADZ BR SCT006 OVC008
     FM010800 03008KT 3SM -DZ BR OVC006
     FM011400 04010KT 5SM -SHRA BR OVC008
     FM011700 02008KT 6SM -SHRA BR OVC012
     FM012300 36007KT 6SM BR OVC008=

USA.gov is the U.S. government's official web portal to all federal, state and local government web resources and services.